Time;durP1;ratioP1;P1;durP2;ratioP2;P2;SDS_P1;SDS_P2;PMS_P1;PMS_P2;Temp;Humidity;BMP_temperature;BMP_pressure;BME280_temperature;BME280_humidity;BME280_pressure;Samples;Min_cycle;Max_cycle;Signal;HPM_P1;HPM_P2
2022/12/27 00:02:02;;;;;;;16.60;6.23;;;2.90;99.90;;;;;;4998486;28;20040;-76
2022/12/27 00:04:29;;;;;;;14.13;6.22;;;2.90;99.90;;;;;;5019446;28;20033;-76
2022/12/27 00:06:56;;;;;;;17.38;6.68;;;2.90;99.90;;;;;;4989509;28;20042;-77
2022/12/27 00:09:22;;;;;;;17.15;6.47;;;2.90;99.90;;;;;;4986130;28;20045;-76
2022/12/27 00:11:49;;;;;;;12.95;5.82;;;2.90;99.90;;;;;;4997831;28;20034;-76
2022/12/27 00:14:15;;;;;;;11.45;4.85;;;2.90;99.90;;;;;;5019761;28;20038;-76
2022/12/27 00:16:41;;;;;;;19.17;6.75;;;2.90;99.90;;;;;;5001520;28;20030;-76
2022/12/27 00:19:08;;;;;;;14.18;7.07;;;2.90;99.90;;;;;;4998642;28;20044;-76
2022/12/27 00:21:35;;;;;;;18.30;6.40;;;2.90;99.90;;;;;;5008266;28;20038;-76
2022/12/27 00:24:02;;;;;;;12.87;6.27;;;2.90;99.90;;;;;;5001546;28;20041;-76
2022/12/27 00:26:32;;;;;;;12.02;5.60;;;2.90;99.90;;;;;;4986151;28;20573;-76
2022/12/27 00:28:59;;;;;;;13.32;5.10;;;2.90;99.90;;;;;;4998305;28;20117;-75
2022/12/27 00:31:28;;;;;;;16.70;6.27;;;2.90;99.90;;;;;;4979782;28;20056;-76
2022/12/27 00:33:56;;;;;;;19.35;7.70;;;2.90;99.90;;;;;;5018697;28;20044;-76
2022/12/27 00:36:26;;;;;;;14.10;6.90;;;2.80;99.90;;;;;;4997716;28;20038;-76
2022/12/27 00:38:54;;;;;;;13.67;6.27;;;2.80;99.90;;;;;;4987068;28;20045;-75
2022/12/27 00:41:21;;;;;;;11.93;5.87;;;2.90;99.90;;;;;;4995972;28;20056;-76
2022/12/27 00:43:48;;;;;;;14.38;6.82;;;2.80;99.90;;;;;;4980524;28;20050;-76
2022/12/27 00:46:15;;;;;;;21.27;7.50;;;2.90;99.90;;;;;;5003628;28;20056;-76
2022/12/27 00:48:41;;;;;;;17.23;8.13;;;2.80;99.90;;;;;;4985957;28;20026;-76
2022/12/27 00:51:14;;;;;;;16.77;6.20;;;2.80;99.90;;;;;;4956058;28;20047;-76
2022/12/27 00:53:41;;;;;;;14.02;6.65;;;2.80;99.90;;;;;;4983033;28;20038;-75
2022/12/27 00:56:10;;;;;;;14.93;7.05;;;2.80;99.90;;;;;;4983996;28;20419;-76
2022/12/27 00:58:37;;;;;;;12.07;7.30;;;2.80;99.90;;;;;;5002507;28;20042;-76
2022/12/27 01:01:18;;;;;;;18.53;7.27;;;2.80;99.90;;;;;;4973809;28;20045;-76
2022/12/27 01:03:45;;;;;;;17.60;8.20;;;2.80;99.90;;;;;;4997427;28;20041;-75
2022/12/27 01:06:17;;;;;;;20.73;7.85;;;2.80;99.90;;;;;;4994480;28;20397;-76
2022/12/27 01:08:44;;;;;;;19.08;8.75;;;2.80;99.90;;;;;;5003620;28;20042;-75
2022/12/27 01:11:12;;;;;;;17.90;7.40;;;2.80;99.90;;;;;;4997302;28;20142;-76
2022/12/27 01:13:39;;;;;;;12.35;6.68;;;2.80;99.90;;;;;;5005284;28;20034;-75
2022/12/27 01:16:15;;;;;;;17.93;7.93;;;2.80;99.90;;;;;;5020187;28;20042;-76
2022/12/27 01:18:42;;;;;;;14.13;6.38;;;2.80;99.90;;;;;;5004439;28;20033;-76
2022/12/27 01:21:11;;;;;;;15.63;6.88;;;2.90;99.90;;;;;;5006496;28;20044;-76
2022/12/27 01:23:38;;;;;;;14.95;6.43;;;2.90;99.90;;;;;;4986380;28;20042;-76
2022/12/27 01:26:09;;;;;;;13.10;6.70;;;2.90;99.90;;;;;;5002812;28;20510;-76
2022/12/27 01:28:36;;;;;;;15.30;7.93;;;2.90;99.90;;;;;;5009229;28;20045;-76
2022/12/27 01:31:12;;;;;;;14.52;7.55;;;2.90;99.90;;;;;;5003254;28;20060;-76
2022/12/27 01:33:39;;;;;;;18.73;7.63;;;2.90;99.90;;;;;;5008094;28;20037;-76
2022/12/27 01:36:20;;;;;;;13.98;7.47;;;2.80;99.90;;;;;;4980659;28;20041;-77
2022/12/27 01:38:48;;;;;;;13.63;7.88;;;2.90;99.90;;;;;;5008920;28;20056;-76
2022/12/27 01:44:38;;;;;;;16.98;6.15;;;2.90;99.90;;;;;;5020532;28;20088;-76
2022/12/27 01:47:16;;;;;;;14.38;6.80;;;2.90;99.90;;;;;;5009480;28;20045;-76
2022/12/27 01:49:48;;;;;;;17.77;8.18;;;3.00;99.90;;;;;;4999948;28;20038;-75
2022/12/27 01:52:15;;;;;;;18.50;8.32;;;3.00;99.90;;;;;;5000148;28;20030;-77
2022/12/27 01:54:42;;;;;;;16.65;8.40;;;3.00;99.90;;;;;;4982755;28;20038;-75
2022/12/27 01:57:09;;;;;;;17.88;8.23;;;3.10;99.90;;;;;;4972652;28;20036;-76
2022/12/27 01:59:35;;;;;;;16.10;7.78;;;3.10;99.90;;;;;;5005114;28;20172;-76
2022/12/27 02:02:02;;;;;;;12.27;5.90;;;3.10;99.90;;;;;;5016336;28;20037;-76
2022/12/27 02:04:30;;;;;;;14.07;7.53;;;3.00;99.90;;;;;;5008107;28;20114;-76
2022/12/27 02:06:58;;;;;;;17.53;8.27;;;3.00;99.90;;;;;;5007347;28;20420;-76
2022/12/27 02:09:47;;;;;;;13.75;7.65;;;3.00;99.90;;;;;;5008781;28;20053;-77
2022/12/27 02:12:14;;;;;;;18.77;8.52;;;3.00;99.90;;;;;;5001452;28;20068;-77
2022/12/27 02:14:44;;;;;;;15.60;8.43;;;3.00;99.90;;;;;;4985714;28;20050;-76
2022/12/27 02:17:27;;;;;;;18.90;9.00;;;3.10;99.90;;;;;;5023196;28;20033;-76
2022/12/27 02:20:16;;;;;;;16.83;9.67;;;3.20;99.90;;;;;;5003002;28;20038;-75
2022/12/27 02:26:11;;;;;;;19.52;10.30;;;3.40;99.90;;;;;;5021624;28;20049;-77
2022/12/27 02:28:58;;;;;;;15.13;8.13;;;3.40;99.90;;;;;;4990599;28;20404;-76
2022/12/27 02:31:38;;;;;;;14.37;8.43;;;3.50;99.90;;;;;;5016703;28;20106;-76
2022/12/27 02:34:21;;;;;;;14.80;8.88;;;3.50;99.90;;;;;;5021968;28;20034;-76
2022/12/27 02:36:51;;;;;;;17.90;9.95;;;3.60;99.90;;;;;;5017470;28;20424;-76
2022/12/27 02:39:19;;;;;;;21.52;9.32;;;3.60;99.90;;;;;;4987271;28;20050;-76
2022/12/27 02:53:28;;;;;;;11.23;7.13;;;3.60;99.90;;;;;;5005034;28;20040;-75
2022/12/27 02:59:03;;;;;;;7.68;5.20;;;3.50;99.90;;;;;;5006333;28;20050;-76
2022/12/27 03:05:02;;;;;;;17.48;8.43;;;3.30;99.90;;;;;;5006132;28;20038;-76
2022/12/27 03:07:53;;;;;;;16.90;7.85;;;3.20;99.90;;;;;;5014060;28;20512;-75
2022/12/27 03:16:57;;;;;;;15.68;7.53;;;3.20;99.90;;;;;;5009679;28;20052;-77
2022/12/27 03:25:27;;;;;;;14.98;6.85;;;3.30;99.90;;;;;;5006872;28;20034;-75
2022/12/27 03:34:30;;;;;;;19.17;9.80;;;3.20;99.90;;;;;;4995933;28;20046;-75
2022/12/27 03:39:46;;;;;;;15.00;8.43;;;3.10;99.90;;;;;;5005602;28;20045;-75
2022/12/27 03:45:05;;;;;;;18.02;7.65;;;3.10;99.90;;;;;;5004702;28;20416;-76
2022/12/27 03:47:46;;;;;;;19.92;7.35;;;3.20;99.90;;;;;;4977834;28;20038;-75
2022/12/27 03:50:39;;;;;;;18.80;8.30;;;3.20;99.90;;;;;;4998943;28;20038;-75
2022/12/27 03:53:09;;;;;;;21.35;10.63;;;3.20;99.90;;;;;;5002749;28;20595;-76
2022/12/27 03:55:36;;;;;;;13.20;8.20;;;3.20;99.90;;;;;;5003725;28;20038;-75
2022/12/27 03:58:03;;;;;;;16.65;9.23;;;3.10;99.90;;;;;;5004369;28;20350;-75
2022/12/27 04:00:30;;;;;;;15.85;10.48;;;3.10;99.90;;;;;;4963114;28;20053;-75
2022/12/27 04:02:56;;;;;;;16.10;8.82;;;3.10;99.90;;;;;;4962176;28;20481;-76
2022/12/27 04:05:22;;;;;;;27.13;12.93;;;3.10;99.90;;;;;;5020542;28;20500;-75
2022/12/27 04:35:18;;;;;;;22.63;10.00;;;3.10;99.90;;;;;;5020205;28;20485;-75
2022/12/27 04:37:45;;;;;;;23.38;11.05;;;3.10;99.90;;;;;;5005920;28;20497;-75
2022/12/27 04:57:06;;;;;;;14.68;8.18;;;3.00;99.90;;;;;;4996502;28;20037;-76
2022/12/27 05:02:18;;;;;;;20.83;9.38;;;2.90;99.90;;;;;;5001400;28;20482;-76
2022/12/27 05:04:45;;;;;;;23.13;9.20;;;2.90;99.90;;;;;;5014432;28;20397;-75
2022/12/27 05:15:31;;;;;;;19.52;8.77;;;2.90;99.90;;;;;;5005434;28;20473;-75
2022/12/27 05:17:58;;;;;;;14.90;7.57;;;2.90;99.90;;;;;;5004426;28;20045;-75
2022/12/27 05:20:24;;;;;;;20.25;8.48;;;2.90;99.90;;;;;;4998761;28;20052;-75
2022/12/27 05:25:43;;;;;;;25.87;9.53;;;2.80;99.90;;;;;;5011900;28;20061;-76
2022/12/27 05:28:11;;;;;;;19.45;8.80;;;2.80;99.90;;;;;;5001099;28;20041;-75
2022/12/27 05:30:40;;;;;;;23.10;8.25;;;2.80;99.90;;;;;;4976781;28;20050;-75
2022/12/27 05:33:07;;;;;;;19.35;8.90;;;2.80;99.90;;;;;;4998735;28;20033;-76
2022/12/27 05:35:33;;;;;;;24.20;11.68;;;2.90;99.90;;;;;;4967206;28;20053;-76
2022/12/27 05:38:00;;;;;;;23.47;10.20;;;2.80;99.90;;;;;;4988335;28;20481;-76
2022/12/27 05:40:27;;;;;;;22.17;10.33;;;2.90;99.90;;;;;;4997521;28;20049;-75
2022/12/27 05:42:56;;;;;;;24.70;9.73;;;2.90;99.90;;;;;;5004701;28;20062;-76
2022/12/27 05:45:23;;;;;;;21.13;10.30;;;2.90;99.90;;;;;;5005394;28;20493;-75
2022/12/27 05:47:49;;;;;;;25.90;10.60;;;2.90;99.90;;;;;;5011546;28;20050;-76
2022/12/27 05:50:16;;;;;;;26.20;9.45;;;2.90;99.90;;;;;;4997867;28;20046;-75
2022/12/27 05:52:48;;;;;;;;;;;2.90;99.90;;;;;;5001131;28;20033;-76
2022/12/27 05:55:15;;;;;;;17.33;9.17;;;2.90;99.90;;;;;;5010400;28;19920;-76
2022/12/27 05:57:41;;;;;;;25.37;10.03;;;2.90;99.90;;;;;;5000715;28;20038;-75
2022/12/27 06:00:10;;;;;;;25.87;10.03;;;2.90;99.90;;;;;;4963341;28;20042;-75
2022/12/27 06:02:40;;;;;;;18.00;8.88;;;2.90;99.90;;;;;;5000738;28;20046;-75
2022/12/27 06:05:08;;;;;;;15.63;8.55;;;2.90;99.90;;;;;;4979629;28;20037;-76
2022/12/27 06:07:36;;;;;;;17.35;8.48;;;2.90;99.90;;;;;;5003966;28;20034;-75
2022/12/27 06:10:04;;;;;;;19.08;8.85;;;2.90;99.90;;;;;;4989915;28;20038;-75
2022/12/27 06:12:31;;;;;;;17.20;8.68;;;2.90;99.90;;;;;;4976774;28;20034;-76
2022/12/27 06:14:57;;;;;;;16.30;7.80;;;2.90;99.90;;;;;;5005980;28;20029;-75
2022/12/27 06:17:23;;;;;;;20.17;7.60;;;2.90;99.90;;;;;;5021114;28;20046;-76
2022/12/27 06:19:50;;;;;;;17.83;7.63;;;2.90;99.90;;;;;;5004568;28;20457;-75
2022/12/27 06:22:16;;;;;;;20.20;7.50;;;2.90;99.90;;;;;;5020343;28;20033;-76
2022/12/27 06:24:43;;;;;;;20.20;8.63;;;2.90;99.90;;;;;;4974239;28;20038;-75
2022/12/27 06:27:09;;;;;;;23.00;8.88;;;2.90;99.90;;;;;;4982007;28;20030;-76
2022/12/27 06:29:35;;;;;;;22.52;8.13;;;2.90;99.90;;;;;;4990145;28;20041;-76
2022/12/27 06:32:02;;;;;;;22.40;9.07;;;2.90;99.90;;;;;;5012662;28;20400;-75
2022/12/27 06:34:28;;;;;;;22.67;8.43;;;2.80;99.90;;;;;;5007562;28;20038;-75
2022/12/27 06:36:55;;;;;;;16.20;6.70;;;2.80;99.90;;;;;;4990861;28;20493;-75
2022/12/27 06:39:21;;;;;;;22.85;8.50;;;2.80;99.90;;;;;;5007310;28;20026;-76
2022/12/27 06:41:49;;;;;;;25.70;8.83;;;2.80;99.90;;;;;;4996280;28;20429;-75
2022/12/27 06:44:16;;;;;;;13.63;6.97;;;2.80;99.90;;;;;;5002526;28;20050;-76
2022/12/27 06:46:42;;;;;;;20.40;9.40;;;2.80;99.90;;;;;;5007521;28;20473;-75
2022/12/27 06:49:10;;;;;;;17.83;7.77;;;2.80;99.90;;;;;;5007848;28;20032;-76
2022/12/27 06:51:36;;;;;;;22.40;9.30;;;2.80;99.90;;;;;;4981896;28;20308;-76
2022/12/27 06:54:03;;;;;;;18.88;7.07;;;2.80;99.90;;;;;;5007949;28;20030;-75
2022/12/27 06:56:29;;;;;;;18.53;7.73;;;2.80;99.90;;;;;;4989445;28;20033;-75
2022/12/27 06:58:56;;;;;;;17.00;7.87;;;2.80;99.90;;;;;;5005060;28;20049;-76
2022/12/27 07:01:25;;;;;;;24.03;9.60;;;2.80;99.90;;;;;;4998815;28;20476;-76
2022/12/27 07:03:54;;;;;;;19.57;7.37;;;2.80;99.90;;;;;;5006076;28;20029;-75
2022/12/27 07:06:22;;;;;;;12.57;6.38;;;2.90;99.90;;;;;;5000187;28;20030;-75
2022/12/27 07:08:49;;;;;;;21.88;7.20;;;2.80;99.90;;;;;;4987227;28;20045;-75
2022/12/27 07:11:17;;;;;;;21.30;7.57;;;2.90;99.90;;;;;;4986955;28;20026;-75
2022/12/27 07:13:49;;;;;;;13.03;7.07;;;2.80;99.90;;;;;;5022207;28;20504;-75
2022/12/27 07:16:18;;;;;;;20.00;8.40;;;2.80;99.90;;;;;;5007460;28;20065;-76
2022/12/27 07:18:45;;;;;;;22.15;7.88;;;2.80;99.90;;;;;;4989927;28;20504;-76
2022/12/27 07:21:18;;;;;;;21.38;8.55;;;2.80;99.90;;;;;;4984237;28;20048;-75
2022/12/27 07:23:45;;;;;;;23.33;10.10;;;2.80;99.90;;;;;;5022405;28;20049;-76
2022/12/27 07:26:17;;;;;;;24.77;10.63;;;2.80;99.90;;;;;;5004317;28;20060;-75
2022/12/27 07:28:44;;;;;;;17.73;7.38;;;2.80;99.90;;;;;;4998346;28;20041;-76
2022/12/27 07:31:13;;;;;;;24.00;9.25;;;2.80;99.90;;;;;;4982580;28;20053;-75
2022/12/27 07:33:40;;;;;;;21.92;7.78;;;2.80;99.90;;;;;;4987149;28;20030;-76
2022/12/27 07:36:12;;;;;;;20.97;9.37;;;2.80;99.90;;;;;;5002216;28;20042;-75
2022/12/27 07:38:39;;;;;;;16.05;8.00;;;2.80;99.90;;;;;;5012128;28;20038;-76
2022/12/27 07:41:06;;;;;;;16.47;7.90;;;2.70;99.90;;;;;;5001828;28;20046;-75
2022/12/27 07:43:34;;;;;;;19.13;8.60;;;2.70;99.90;;;;;;5014682;28;20486;-76
2022/12/27 07:46:09;;;;;;;19.23;8.38;;;2.80;99.90;;;;;;4994961;28;20037;-74
2022/12/27 07:48:36;;;;;;;21.80;9.80;;;2.70;99.90;;;;;;5005763;28;20052;-75
2022/12/27 07:51:03;;;;;;;18.73;7.80;;;2.80;99.90;;;;;;5017066;28;20038;-75
2022/12/27 07:53:30;;;;;;;16.15;9.02;;;2.70;99.90;;;;;;5016576;28;20030;-76
2022/12/27 07:55:57;;;;;;;20.77;7.32;;;2.70;99.90;;;;;;4992643;28;20030;-76
2022/12/27 07:58:23;;;;;;;22.97;10.07;;;2.70;99.90;;;;;;4990296;28;20126;-75
2022/12/27 08:00:50;;;;;;;16.25;8.05;;;2.70;99.90;;;;;;5001048;28;20436;-75
2022/12/27 08:03:18;;;;;;;20.52;8.65;;;2.80;99.90;;;;;;5020918;28;20057;-76
2022/12/27 08:05:48;;;;;;;19.75;8.55;;;2.80;99.90;;;;;;4999025;28;20037;-76
2022/12/27 08:08:16;;;;;;;18.95;8.23;;;2.70;99.90;;;;;;5002969;28;20045;-76
2022/12/27 08:10:43;;;;;;;16.23;9.07;;;2.80;99.90;;;;;;4995143;28;20057;-75
2022/12/27 08:13:10;;;;;;;24.25;9.68;;;2.80;99.90;;;;;;5020879;28;20037;-76
2022/12/27 08:15:37;;;;;;;17.67;8.95;;;2.80;99.90;;;;;;4993726;28;20060;-75
2022/12/27 08:18:04;;;;;;;27.93;11.93;;;2.80;99.90;;;;;;4961315;28;20038;-76
2022/12/27 08:20:30;;;;;;;21.42;11.00;;;2.80;99.90;;;;;;5006782;28;20054;-75
2022/12/27 08:22:57;;;;;;;27.03;12.37;;;2.90;99.90;;;;;;5004330;28;20044;-76
2022/12/27 08:25:23;;;;;;;30.63;14.93;;;2.90;99.90;;;;;;5003863;28;20046;-75
2022/12/27 08:27:50;;;;;;;26.53;13.37;;;2.90;99.90;;;;;;5002913;28;20465;-76
2022/12/27 08:30:16;;;;;;;33.47;14.60;;;2.90;99.90;;;;;;4983065;28;20041;-75
2022/12/27 08:32:43;;;;;;;23.80;12.80;;;3.00;99.90;;;;;;4978753;28;20034;-75
2022/12/27 08:35:09;;;;;;;24.30;13.80;;;3.00;99.90;;;;;;5003982;28;20473;-76
2022/12/27 08:37:35;;;;;;;31.80;13.93;;;3.10;99.90;;;;;;5005339;28;20038;-75
2022/12/27 08:40:02;;;;;;;26.93;16.73;;;3.10;99.90;;;;;;4999548;28;20038;-75
2022/12/27 08:42:29;;;;;;;28.58;14.73;;;3.10;99.90;;;;;;5001387;28;20049;-75
2022/12/27 08:44:55;;;;;;;27.00;12.97;;;3.20;99.90;;;;;;5005995;28;20046;-75
2022/12/27 08:47:22;;;;;;;29.35;14.23;;;3.20;99.90;;;;;;5000827;28;20034;-77
2022/12/27 08:49:49;;;;;;;28.33;14.05;;;3.30;99.90;;;;;;5010723;28;20026;-74
2022/12/27 08:52:15;;;;;;;24.67;13.40;;;3.30;99.90;;;;;;5003434;28;20038;-75
2022/12/27 08:54:42;;;;;;;31.90;14.90;;;3.40;99.90;;;;;;4987521;28;20473;-74
2022/12/27 08:57:08;;;;;;;27.38;15.65;;;3.50;99.90;;;;;;5002629;28;20389;-75
2022/12/27 08:59:34;;;;;;;26.33;14.93;;;3.50;99.90;;;;;;5002751;28;20389;-74
2022/12/27 09:02:01;;;;;;;45.72;20.55;;;3.60;99.90;;;;;;4990356;28;20049;-75
2022/12/27 09:04:27;;;;;;;34.35;17.60;;;3.70;99.90;;;;;;5001369;28;20057;-75
2022/12/27 09:06:53;;;;;;;30.88;15.73;;;3.80;99.90;;;;;;5018889;28;20030;-76
2022/12/27 09:09:20;;;;;;;26.25;15.18;;;3.90;99.90;;;;;;5003679;28;20037;-76
2022/12/27 09:11:46;;;;;;;29.48;15.18;;;3.90;99.90;;;;;;4976105;28;20028;-76
2022/12/27 09:14:13;;;;;;;22.27;13.20;;;3.90;99.90;;;;;;5018418;28;20041;-75
2022/12/27 09:16:39;;;;;;;28.88;14.05;;;4.00;99.90;;;;;;4987763;28;20042;-75
2022/12/27 09:19:05;;;;;;;24.70;14.85;;;4.00;99.90;;;;;;5002013;28;20049;-76
2022/12/27 09:21:33;;;;;;;33.55;15.27;;;4.00;99.90;;;;;;4976228;28;20064;-75
2022/12/27 09:23:59;;;;;;;44.90;20.50;;;4.10;99.90;;;;;;4988411;28;20425;-77
2022/12/27 09:26:28;;;;;;;36.05;18.55;;;4.10;99.90;;;;;;4984596;28;20037;-76
2022/12/27 09:28:56;;;;;;;30.17;15.10;;;4.10;99.90;;;;;;4999646;28;20041;-76
2022/12/27 09:31:24;;;;;;;25.20;15.05;;;4.20;99.90;;;;;;4977085;28;20029;-75
2022/12/27 09:33:52;;;;;;;29.05;15.45;;;4.20;99.90;;;;;;5017571;28;20393;-75
2022/12/27 09:36:21;;;;;;;26.45;14.35;;;4.30;99.90;;;;;;4987288;28;20031;-75
2022/12/27 09:38:51;;;;;;;35.35;16.85;;;4.30;99.90;;;;;;5019015;28;20030;-75
2022/12/27 09:41:37;;;;;;;29.63;15.32;;;4.40;99.90;;;;;;4974491;28;20049;-75
2022/12/27 09:44:13;;;;;;;35.17;19.67;;;4.40;99.90;;;;;;5003209;28;20054;-74
2022/12/27 09:46:51;;;;;;;31.27;17.40;;;4.50;99.90;;;;;;4993390;28;20037;-75
2022/12/27 09:49:57;;;;;;;26.58;16.60;;;4.50;99.90;;;;;;4994165;28;20041;-76
2022/12/27 09:52:31;;;;;;;37.33;20.15;;;4.60;99.90;;;;;;4952422;28;20033;-75
2022/12/27 09:55:10;;;;;;;33.25;19.95;;;4.60;99.90;;;;;;4991828;28;20463;-76
2022/12/27 09:57:39;;;;;;;39.15;25.63;;;4.60;99.90;;;;;;5006722;28;20041;-75
2022/12/27 10:00:19;;;;;;;34.40;20.42;;;4.70;99.90;;;;;;5000697;28;20465;-75
2022/12/27 10:02:47;;;;;;;31.10;19.52;;;4.70;99.90;;;;;;5002177;28;20079;-75
2022/12/27 10:05:23;;;;;;;36.13;19.10;;;4.80;99.90;;;;;;5006970;28;20545;-74
2022/12/27 10:07:49;;;;;;;31.52;18.10;;;4.80;99.90;;;;;;5006239;28;20042;-75
2022/12/27 10:10:37;;;;;;;31.20;19.65;;;4.80;99.90;;;;;;4983156;28;20049;-75
2022/12/27 10:13:18;;;;;;;38.20;18.88;;;4.90;99.90;;;;;;5007404;28;20062;-76
2022/12/27 10:16:27;;;;;;;36.03;20.27;;;4.90;99.90;;;;;;4999239;28;20060;-75
2022/12/27 10:19:15;;;;;;;41.80;24.50;;;4.90;99.90;;;;;;4935508;28;20043;-75
2022/12/27 10:22:00;;;;;;;37.97;22.17;;;5.00;99.90;;;;;;4927898;28;20058;-75
2022/12/27 10:24:46;;;;;;;31.55;20.25;;;5.00;99.90;;;;;;4975910;28;20050;-75
2022/12/27 10:27:16;;;;;;;36.40;20.00;;;5.10;99.90;;;;;;5001123;28;20145;-76
2022/12/27 10:29:43;;;;;;;30.48;19.02;;;5.10;99.90;;;;;;4988785;28;20046;-75
2022/12/27 10:32:13;;;;;;;32.00;17.58;;;5.10;99.90;;;;;;5003618;28;20045;-76
2022/12/27 10:34:39;;;;;;;37.38;20.98;;;5.10;99.90;;;;;;5022646;28;20489;-75
2022/12/27 10:37:13;;;;;;;39.55;22.02;;;5.20;99.90;;;;;;5006606;28;20030;-74
2022/12/27 10:39:41;;;;;;;41.97;25.27;;;5.20;99.90;;;;;;5005891;28;20042;-74
2022/12/27 10:42:49;;;;;;;46.42;25.38;;;5.20;99.90;;;;;;4998124;28;20033;-75
2022/12/27 10:45:25;;;;;;;48.35;29.55;;;5.30;99.90;;;;;;5001206;28;20061;-75
2022/12/27 10:47:54;;;;;;;45.90;28.02;;;5.40;99.90;;;;;;5002664;28;20037;-75
2022/12/27 10:50:24;;;;;;;43.95;26.58;;;5.40;99.90;;;;;;5000119;28;20037;-75
2022/12/27 10:52:51;;;;;;;41.17;25.92;;;5.40;99.90;;;;;;4993132;28;20034;-76
2022/12/27 10:55:37;;;;;;;41.47;23.55;;;5.50;99.90;;;;;;5004685;28;20060;-75
2022/12/27 10:58:23;;;;;;;40.45;25.23;;;5.50;99.90;;;;;;4984402;28;20062;-76
2022/12/27 11:00:55;;;;;;;49.95;27.55;;;5.60;99.90;;;;;;4984906;28;20520;-75
2022/12/27 11:03:22;;;;;;;38.22;24.25;;;5.70;99.90;;;;;;5019196;28;20038;-76
2022/12/27 11:06:22;;;;;;;35.75;23.90;;;5.70;99.90;;;;;;4985237;28;20402;-75
2022/12/27 11:08:49;;;;;;;41.42;24.00;;;5.80;99.90;;;;;;4996577;28;20022;-75
2022/12/27 11:11:23;;;;;;;42.28;23.80;;;5.80;99.90;;;;;;5010939;28;20025;-77
2022/12/27 11:13:51;;;;;;;38.85;23.58;;;5.90;99.90;;;;;;4989553;28;20026;-75
2022/12/27 11:16:27;;;;;;;34.67;22.90;;;5.90;99.90;;;;;;4986617;28;20033;-75
2022/12/27 11:18:57;;;;;;;35.88;21.90;;;5.90;99.90;;;;;;5021324;28;20042;-76
2022/12/27 11:21:27;;;;;;;39.40;22.88;;;6.00;99.90;;;;;;4998614;28;20033;-75
2022/12/27 11:24:01;;;;;;;37.42;23.23;;;6.00;99.90;;;;;;5022069;28;20473;-75
2022/12/27 11:26:52;;;;;;;32.53;21.98;;;6.00;99.90;;;;;;4987491;28;20044;-75
2022/12/27 11:29:21;;;;;;;32.67;20.88;;;6.10;99.90;;;;;;5017197;28;20420;-74
2022/12/27 11:31:50;;;;;;;32.05;21.83;;;6.30;99.90;;;;;;4972210;28;20035;-75
2022/12/27 11:34:30;;;;;;;36.55;22.17;;;6.30;99.90;;;;;;4999260;28;20038;-75
2022/12/27 11:37:11;;;;;;;32.30;20.33;;;6.40;99.90;;;;;;4994092;28;20040;-75
2022/12/27 11:39:41;;;;;;;33.35;20.23;;;6.40;99.90;;;;;;5004168;28;20481;-75
2022/12/27 11:42:22;;;;;;;31.45;18.27;;;6.40;99.90;;;;;;4996819;28;20508;-76
2022/12/27 11:44:59;;;;;;;26.95;16.73;;;6.40;99.90;;;;;;4972745;28;20048;-76
2022/12/27 11:47:55;;;;;;;25.50;16.58;;;6.40;99.90;;;;;;5006962;28;20063;-75
2022/12/27 11:50:27;;;;;;;22.52;14.65;;;6.30;99.90;;;;;;4981593;28;20042;-76
2022/12/27 11:53:25;;;;;;;24.33;12.95;;;6.30;99.90;;;;;;4977016;28;20030;-75
2022/12/27 11:56:02;;;;;;;23.38;14.50;;;6.20;99.90;;;;;;5001671;28;20030;-75
2022/12/27 11:59:00;;;;;;;21.23;12.68;;;6.20;99.90;;;;;;4981497;28;20035;-76
2022/12/27 12:01:48;;;;;;;21.45;12.48;;;6.20;99.90;;;;;;4992907;28;20034;-76
2022/12/27 12:04:34;;;;;;;17.50;10.73;;;6.10;99.90;;;;;;5020250;28;20038;-76
2022/12/27 12:07:03;;;;;;;20.67;10.60;;;6.10;99.90;;;;;;5006403;28;20497;-76
2022/12/27 12:09:40;;;;;;;12.68;8.82;;;6.20;99.90;;;;;;5005921;28;20038;-76
2022/12/27 12:12:19;;;;;;;18.13;9.77;;;6.30;99.90;;;;;;4958376;28;20048;-76
2022/12/27 12:15:14;;;;;;;24.33;11.02;;;6.30;99.90;;;;;;4989040;28;20485;-73
2022/12/27 12:18:06;;;;;;;17.23;10.07;;;6.40;99.90;;;;;;5005355;28;20046;-73
2022/12/27 12:21:02;;;;;;;20.83;9.73;;;6.50;99.90;;;;;;5005028;28;20049;-72
2022/12/27 12:24:16;;;;;;;13.93;9.02;;;6.60;99.90;;;;;;4983597;28;20042;-73
2022/12/27 12:26:54;;;;;;;18.52;8.40;;;6.70;99.90;;;;;;4973295;28;20042;-73
2022/12/27 12:29:26;;;;;;;14.60;7.60;;;6.70;99.90;;;;;;5005427;28;20041;-73
2022/12/27 12:31:53;;;;;;;19.15;7.47;;;6.70;99.90;;;;;;5007829;28;20033;-73
2022/12/27 12:34:41;;;;;;;14.73;7.72;;;6.80;99.90;;;;;;5004591;28;20033;-73
2022/12/27 12:37:25;;;;;;;19.95;7.22;;;6.90;99.90;;;;;;5004727;28;20037;-74
2022/12/27 12:40:25;;;;;;;13.48;6.13;;;6.90;99.90;;;;;;4980380;28;20054;-74
2022/12/27 12:43:22;;;;;;;16.40;6.03;;;7.00;99.90;;;;;;4985966;28;20560;-75
2022/12/27 12:45:48;;;;;;;16.02;7.35;;;7.10;99.90;;;;;;5004150;28;20033;-74
2022/12/27 12:48:42;;;;;;;17.95;6.55;;;7.10;99.90;;;;;;4993535;28;20049;-73
2022/12/27 12:51:38;;;;;;;12.57;6.00;;;7.20;99.90;;;;;;4990618;28;20038;-74
2022/12/27 12:54:27;;;;;;;13.27;6.03;;;7.20;99.90;;;;;;5004292;28;20038;-74
2022/12/27 12:57:12;;;;;;;10.38;5.10;;;7.30;99.90;;;;;;4986720;28;20042;-74
2022/12/27 13:00:03;;;;;;;12.00;6.15;;;7.40;99.90;;;;;;4988681;28;20037;-74
2022/12/27 13:02:49;;;;;;;15.70;6.65;;;7.50;99.90;;;;;;4999706;28;20481;-74
2022/12/27 13:05:40;;;;;;;14.07;6.05;;;7.60;99.90;;;;;;4987789;28;20481;-74
2022/12/27 13:08:18;;;;;;;12.88;5.65;;;7.60;99.90;;;;;;4999425;28;20030;-73
2022/12/27 13:10:59;;;;;;;15.50;6.10;;;7.50;99.90;;;;;;4978780;28;20049;-73
2022/12/27 13:14:11;;;;;;;15.15;5.70;;;7.50;99.90;;;;;;5019943;28;20038;-73
2022/12/27 13:16:49;;;;;;;13.77;5.40;;;7.40;99.90;;;;;;4985707;28;20046;-73
2022/12/27 13:19:22;;;;;;;18.17;11.90;;;7.30;99.90;;;;;;5003907;28;20583;-73
2022/12/27 13:21:54;;;;;;;19.27;12.38;;;7.20;99.90;;;;;;5007818;28;20034;-75
2022/12/27 13:24:58;;;;;;;16.52;8.18;;;7.20;99.90;;;;;;5008974;28;20033;-74
2022/12/27 13:27:49;;;;;;;19.17;7.32;;;7.30;99.90;;;;;;4994048;28;20052;-73
2022/12/27 13:30:20;;;;;;;14.43;5.82;;;7.30;99.90;;;;;;4995867;28;20053;-73
2022/12/27 13:33:07;;;;;;;16.25;6.70;;;7.40;99.90;;;;;;5007767;28;20030;-73
2022/12/27 13:36:01;;;;;;;11.63;4.97;;;7.40;99.90;;;;;;4986845;28;20044;-74
2022/12/27 13:39:02;;;;;;;14.77;6.03;;;7.40;99.90;;;;;;5005566;28;20041;-74
2022/12/27 13:41:52;;;;;;;12.93;6.35;;;7.50;99.90;;;;;;4980149;28;20622;-73
2022/12/27 13:44:44;;;;;;;11.85;5.57;;;7.50;99.90;;;;;;5024173;28;20051;-74
2022/12/27 13:47:11;;;;;;;8.80;5.70;;;7.60;99.90;;;;;;5021445;28;20041;-73
2022/12/27 13:49:53;;;;;;;10.80;6.22;;;7.60;99.90;;;;;;5009046;28;20137;-73
2022/12/27 13:52:39;;;;;;;14.10;6.05;;;7.60;99.90;;;;;;5018598;28;20037;-74
2022/12/27 13:55:31;;;;;;;18.45;11.73;;;7.60;99.90;;;;;;4988174;28;20045;-78
2022/12/27 13:58:11;;;;;;;11.57;6.95;;;7.60;99.90;;;;;;5025070;28;20034;-77
2022/12/27 14:01:12;;;;;;;16.83;8.30;;;7.60;99.90;;;;;;5015390;28;20481;-75
2022/12/27 14:03:58;;;;;;;14.85;6.72;;;7.60;99.90;;;;;;5007576;28;20026;-77
2022/12/27 14:07:20;;;;;;;14.68;7.78;;;7.60;99.90;;;;;;5023034;28;20477;-76
2022/12/27 14:09:49;;;;;;;13.20;7.72;;;7.60;99.90;;;;;;4945940;28;20394;-76
2022/12/27 14:12:29;;;;;;;11.52;6.40;;;7.60;99.90;;;;;;4973174;28;20046;-76
2022/12/27 14:15:01;;;;;;;16.58;6.78;;;7.60;99.90;;;;;;5007140;28;20333;-76
2022/12/27 14:17:27;;;;;;;12.20;5.90;;;7.60;99.90;;;;;;5004389;28;20393;-76
2022/12/27 14:20:22;;;;;;;14.60;6.45;;;7.60;99.90;;;;;;5020462;28;20033;-75
2022/12/27 14:23:10;;;;;;;17.08;9.85;;;7.60;99.90;;;;;;5003668;28;20045;-76
2022/12/27 14:25:56;;;;;;;14.85;7.63;;;7.60;99.90;;;;;;5005178;28;20033;-77
2022/12/27 14:28:44;;;;;;;11.38;5.82;;;7.60;99.90;;;;;;5008053;28;20045;-76
2022/12/27 14:31:29;;;;;;;9.55;5.78;;;7.60;99.90;;;;;;5013773;28;20033;-75
2022/12/27 14:34:07;;;;;;;17.08;7.40;;;7.50;99.90;;;;;;5022586;28;20061;-73
2022/12/27 14:37:05;;;;;;;11.52;5.55;;;7.50;99.90;;;;;;4975361;28;20413;-72
2022/12/27 14:39:44;;;;;;;12.63;5.80;;;7.50;99.90;;;;;;5021579;28;20401;-73
2022/12/27 14:42:20;;;;;;;9.88;5.28;;;7.40;99.90;;;;;;4984855;28;20489;-73
2022/12/27 14:45:05;;;;;;;13.45;5.15;;;7.40;99.90;;;;;;4991654;28;20057;-73
2022/12/27 14:47:53;;;;;;;6.57;4.57;;;7.30;99.90;;;;;;5007702;28;20046;-72
2022/12/27 14:50:34;;;;;;;8.52;4.57;;;7.30;99.90;;;;;;5011668;28;20041;-73
2022/12/27 14:53:28;;;;;;;11.07;4.15;;;7.30;99.90;;;;;;4990740;28;20048;-73
2022/12/27 14:56:05;;;;;;;13.40;4.80;;;7.20;99.90;;;;;;5008176;28;20049;-73
2022/12/27 14:58:43;;;;;;;9.38;4.55;;;7.20;99.90;;;;;;5006239;28;20030;-73
2022/12/27 15:01:45;;;;;;;9.95;4.45;;;7.20;99.90;;;;;;4981052;28;20050;-72
2022/12/27 15:04:23;;;;;;;9.88;5.10;;;7.10;99.90;;;;;;4997791;28;20042;-73
2022/12/27 15:07:16;;;;;;;9.75;4.57;;;7.10;99.90;;;;;;5001551;28;20041;-73